sensor_id;sensor_type;location;lat;lon;timestamp;temperature;humidity
14252;DHT22;7210;51.502;10.722;2023-01-29T00:00:16;-4.70;85.00
14252;DHT22;7210;51.502;10.722;2023-01-29T00:02:46;-4.70;60.80
14252;DHT22;7210;51.502;10.722;2023-01-29T00:05:14;-4.70;63.40
14252;DHT22;7210;51.502;10.722;2023-01-29T00:07:41;-4.70;61.70
14252;DHT22;7210;51.502;10.722;2023-01-29T00:10:11;-4.70;61.40
14252;DHT22;7210;51.502;10.722;2023-01-29T00:12:41;-4.60;65.60
14252;DHT22;7210;51.502;10.722;2023-01-29T00:15:08;-4.70;64.90
14252;DHT22;7210;51.502;10.722;2023-01-29T00:17:37;-4.70;64.50
14252;DHT22;7210;51.502;10.722;2023-01-29T00:20:05;-4.70;63.90
14252;DHT22;7210;51.502;10.722;2023-01-29T00:22:35;-4.80;64.10
14252;DHT22;7210;51.502;10.722;2023-01-29T00:25:03;-4.80;60.80
14252;DHT22;7210;51.502;10.722;2023-01-29T00:27:35;-4.90;59.10
14252;DHT22;7210;51.502;10.722;2023-01-29T00:30:08;-4.90;60.40
14252;DHT22;7210;51.502;10.722;2023-01-29T00:32:42;-4.90;59.60
14252;DHT22;7210;51.502;10.722;2023-01-29T00:35:10;-5.00;59.00
14252;DHT22;7210;51.502;10.722;2023-01-29T00:37:38;-5.00;55.60
14252;DHT22;7210;51.502;10.722;2023-01-29T00:40:07;-5.00;56.80
14252;DHT22;7210;51.502;10.722;2023-01-29T00:42:35;-5.10;55.90
14252;DHT22;7210;51.502;10.722;2023-01-29T00:45:20;-5.10;53.40
14252;DHT22;7210;51.502;10.722;2023-01-29T00:47:48;-5.00;49.60
14252;DHT22;7210;51.502;10.722;2023-01-29T00:50:16;-5.10;51.70
14252;DHT22;7210;51.502;10.722;2023-01-29T00:52:44;-5.00;51.20
14252;DHT22;7210;51.502;10.722;2023-01-29T00:55:13;-5.00;50.60
14252;DHT22;7210;51.502;10.722;2023-01-29T00:57:41;-5.10;51.80
14252;DHT22;7210;51.502;10.722;2023-01-29T01:00:14;-5.10;51.10
14252;DHT22;7210;51.502;10.722;2023-01-29T01:02:43;-5.10;52.70
14252;DHT22;7210;51.502;10.722;2023-01-29T01:05:38;-5.10;52.80
14252;DHT22;7210;51.502;10.722;2023-01-29T01:08:11;-5.20;52.40
14252;DHT22;7210;51.502;10.722;2023-01-29T01:11:11;-5.20;52.00
14252;DHT22;7210;51.502;10.722;2023-01-29T01:13:50;-5.20;52.10
14252;DHT22;7210;51.502;10.722;2023-01-29T01:16:18;-5.20;53.60
14252;DHT22;7210;51.502;10.722;2023-01-29T01:18:46;-5.30;52.40
14252;DHT22;7210;51.502;10.722;2023-01-29T01:21:15;-5.30;52.60
14252;DHT22;7210;51.502;10.722;2023-01-29T01:23:47;-5.30;49.80
14252;DHT22;7210;51.502;10.722;2023-01-29T01:26:16;-5.20;46.50
14252;DHT22;7210;51.502;10.722;2023-01-29T01:28:44;-5.20;47.70
14252;DHT22;7210;51.502;10.722;2023-01-29T01:31:13;-5.20;47.80
14252;DHT22;7210;51.502;10.722;2023-01-29T01:33:40;-5.20;49.50
14252;DHT22;7210;51.502;10.722;2023-01-29T01:36:11;-5.10;70.70
14252;DHT22;7210;51.502;10.722;2023-01-29T01:38:39;-5.00;51.10
14252;DHT22;7210;51.502;10.722;2023-01-29T01:41:12;-5.00;74.10
14252;DHT22;7210;51.502;10.722;2023-01-29T01:43:51;-4.90;49.90
14252;DHT22;7210;51.502;10.722;2023-01-29T01:46:21;-4.90;55.30
14252;DHT22;7210;51.502;10.722;2023-01-29T01:48:53;-4.90;53.30
14252;DHT22;7210;51.502;10.722;2023-01-29T01:51:28;-4.90;77.40
14252;DHT22;7210;51.502;10.722;2023-01-29T01:54:01;-4.90;53.60
14252;DHT22;7210;51.502;10.722;2023-01-29T01:56:36;-5.00;54.10
14252;DHT22;7210;51.502;10.722;2023-01-29T01:59:11;-5.10;53.30
14252;DHT22;7210;51.502;10.722;2023-01-29T02:01:50;-5.20;52.90
14252;DHT22;7210;51.502;10.722;2023-01-29T02:04:25;-5.20;46.00
14252;DHT22;7210;51.502;10.722;2023-01-29T02:07:13;-5.30;45.90
14252;DHT22;7210;51.502;10.722;2023-01-29T02:10:04;-5.30;45.60
14252;DHT22;7210;51.502;10.722;2023-01-29T02:12:37;-5.30;42.60
14252;DHT22;7210;51.502;10.722;2023-01-29T02:15:07;-5.30;40.10
14252;DHT22;7210;51.502;10.722;2023-01-29T02:17:41;-5.30;39.20
14252;DHT22;7210;51.502;10.722;2023-01-29T02:20:17;-5.30;37.40
14252;DHT22;7210;51.502;10.722;2023-01-29T02:23:24;-5.20;34.00
14252;DHT22;7210;51.502;10.722;2023-01-29T02:26:33;-5.10;32.70
14252;DHT22;7210;51.502;10.722;2023-01-29T02:29:19;-5.00;32.90
14252;DHT22;7210;51.502;10.722;2023-01-29T02:32:14;-5.00;31.60
14252;DHT22;7210;51.502;10.722;2023-01-29T02:34:55;-5.00;33.90
14252;DHT22;7210;51.502;10.722;2023-01-29T02:37:52;-5.00;35.50
14252;DHT22;7210;51.502;10.722;2023-01-29T02:40:29;-4.90;60.30
14252;DHT22;7210;51.502;10.722;2023-01-29T02:43:07;-4.90;42.10
14252;DHT22;7210;51.502;10.722;2023-01-29T02:45:48;-5.00;42.30
14252;DHT22;7210;51.502;10.722;2023-01-29T02:48:22;-5.10;45.30
14252;DHT22;7210;51.502;10.722;2023-01-29T02:50:56;-5.20;44.20
14252;DHT22;7210;51.502;10.722;2023-01-29T02:53:32;-5.20;42.30
14252;DHT22;7210;51.502;10.722;2023-01-29T02:56:09;-5.20;39.70
14252;DHT22;7210;51.502;10.722;2023-01-29T02:58:42;-5.30;40.30
14252;DHT22;7210;51.502;10.722;2023-01-29T03:01:17;-5.30;41.00
14252;DHT22;7210;51.502;10.722;2023-01-29T03:03:51;-5.30;37.90
14252;DHT22;7210;51.502;10.722;2023-01-29T03:06:25;-5.30;39.50
14252;DHT22;7210;51.502;10.722;2023-01-29T03:08:59;-5.30;35.10
14252;DHT22;7210;51.502;10.722;2023-01-29T03:11:34;-5.30;55.80
14252;DHT22;7210;51.502;10.722;2023-01-29T03:14:09;-5.30;32.70
14252;DHT22;7210;51.502;10.722;2023-01-29T03:16:50;-5.40;32.60
14252;DHT22;7210;51.502;10.722;2023-01-29T03:19:27;-5.40;34.30
14252;DHT22;7210;51.502;10.722;2023-01-29T03:22:06;-5.40;34.20
14252;DHT22;7210;51.502;10.722;2023-01-29T03:24:44;-5.40;33.20
14252;DHT22;7210;51.502;10.722;2023-01-29T03:27:36;-5.30;33.00
14252;DHT22;7210;51.502;10.722;2023-01-29T03:30:34;-5.30;34.40
14252;DHT22;7210;51.502;10.722;2023-01-29T03:33:43;-5.40;35.80
14252;DHT22;7210;51.502;10.722;2023-01-29T03:36:20;-5.50;33.50
14252;DHT22;7210;51.502;10.722;2023-01-29T03:38:51;-5.50;32.40
14252;DHT22;7210;51.502;10.722;2023-01-29T03:41:25;-5.50;30.20
14252;DHT22;7210;51.502;10.722;2023-01-29T03:44:11;-5.50;30.60
14252;DHT22;7210;51.502;10.722;2023-01-29T03:46:52;-5.40;31.10
14252;DHT22;7210;51.502;10.722;2023-01-29T03:49:41;-5.40;31.30
14252;DHT22;7210;51.502;10.722;2023-01-29T03:52:27;-5.40;32.80
14252;DHT22;7210;51.502;10.722;2023-01-29T03:55:05;-5.40;33.00
14252;DHT22;7210;51.502;10.722;2023-01-29T03:57:45;-5.40;32.50
14252;DHT22;7210;51.502;10.722;2023-01-29T04:00:25;-5.50;35.70
14252;DHT22;7210;51.502;10.722;2023-01-29T04:03:08;-5.50;32.50
14252;DHT22;7210;51.502;10.722;2023-01-29T04:05:58;-5.50;31.40
14252;DHT22;7210;51.502;10.722;2023-01-29T04:08:45;-5.40;28.70
14252;DHT22;7210;51.502;10.722;2023-01-29T04:11:19;-5.30;30.10
14252;DHT22;7210;51.502;10.722;2023-01-29T04:13:49;-5.20;27.70
14252;DHT22;7210;51.502;10.722;2023-01-29T04:16:25;-5.20;28.50
14252;DHT22;7210;51.502;10.722;2023-01-29T04:19:19;-5.20;27.70
14252;DHT22;7210;51.502;10.722;2023-01-29T04:21:54;-5.10;31.60
14252;DHT22;7210;51.502;10.722;2023-01-29T04:24:29;-5.10;28.10
14252;DHT22;7210;51.502;10.722;2023-01-29T04:27:06;-5.00;31.30
14252;DHT22;7210;51.502;10.722;2023-01-29T04:29:59;-5.00;32.40
14252;DHT22;7210;51.502;10.722;2023-01-29T04:32:53;-4.90;35.40
14252;DHT22;7210;51.502;10.722;2023-01-29T04:35:34;-4.90;35.40
14252;DHT22;7210;51.502;10.722;2023-01-29T04:38:22;-4.90;39.80
14252;DHT22;7210;51.502;10.722;2023-01-29T04:41:02;-4.90;40.80
14252;DHT22;7210;51.502;10.722;2023-01-29T04:43:40;-5.00;39.00
14252;DHT22;7210;51.502;10.722;2023-01-29T04:46:15;-5.00;35.80
14252;DHT22;7210;51.502;10.722;2023-01-29T04:48:59;-4.90;34.80
14252;DHT22;7210;51.502;10.722;2023-01-29T04:51:42;-4.90;35.80
14252;DHT22;7210;51.502;10.722;2023-01-29T04:54:26;-4.80;33.50
14252;DHT22;7210;51.502;10.722;2023-01-29T04:57:10;-4.70;37.00
14252;DHT22;7210;51.502;10.722;2023-01-29T04:59:52;-4.60;43.70
14252;DHT22;7210;51.502;10.722;2023-01-29T05:02:26;-4.50;52.30
14252;DHT22;7210;51.502;10.722;2023-01-29T05:04:54;-4.40;56.40
14252;DHT22;7210;51.502;10.722;2023-01-29T05:07:25;-4.40;61.30
14252;DHT22;7210;51.502;10.722;2023-01-29T05:10:02;-4.40;63.80
14252;DHT22;7210;51.502;10.722;2023-01-29T05:12:36;-4.40;67.60
14252;DHT22;7210;51.502;10.722;2023-01-29T05:15:08;-4.50;67.40
14252;DHT22;7210;51.502;10.722;2023-01-29T05:17:39;-4.60;65.00
14252;DHT22;7210;51.502;10.722;2023-01-29T05:20:10;-4.60;61.50
14252;DHT22;7210;51.502;10.722;2023-01-29T05:22:39;-4.60;59.80
14252;DHT22;7210;51.502;10.722;2023-01-29T05:25:19;-4.60;56.10
14252;DHT22;7210;51.502;10.722;2023-01-29T05:27:49;-4.50;55.20
14252;DHT22;7210;51.502;10.722;2023-01-29T05:30:29;-4.60;57.70
14252;DHT22;7210;51.502;10.722;2023-01-29T05:32:56;-4.60;55.40
14252;DHT22;7210;51.502;10.722;2023-01-29T05:35:23;-4.60;55.10
14252;DHT22;7210;51.502;10.722;2023-01-29T05:37:54;-4.50;53.90
14252;DHT22;7210;51.502;10.722;2023-01-29T05:40:24;-4.60;56.30
14252;DHT22;7210;51.502;10.722;2023-01-29T05:42:52;-4.60;54.60
14252;DHT22;7210;51.502;10.722;2023-01-29T05:45:41;-4.60;51.20
14252;DHT22;7210;51.502;10.722;2023-01-29T05:48:11;-4.50;49.40
14252;DHT22;7210;51.502;10.722;2023-01-29T05:50:41;-4.40;51.00
14252;DHT22;7210;51.502;10.722;2023-01-29T05:53:11;-4.40;53.30
14252;DHT22;7210;51.502;10.722;2023-01-29T05:55:44;-4.40;53.90
14252;DHT22;7210;51.502;10.722;2023-01-29T05:58:13;-4.40;54.40
14252;DHT22;7210;51.502;10.722;2023-01-29T06:00:41;-4.40;53.10
14252;DHT22;7210;51.502;10.722;2023-01-29T06:03:08;-4.30;53.90
14252;DHT22;7210;51.502;10.722;2023-01-29T06:05:36;-4.20;60.80
14252;DHT22;7210;51.502;10.722;2023-01-29T06:08:06;-4.20;58.10
14252;DHT22;7210;51.502;10.722;2023-01-29T06:10:34;-4.10;59.50
14252;DHT22;7210;51.502;10.722;2023-01-29T06:13:03;-4.10;60.60
14252;DHT22;7210;51.502;10.722;2023-01-29T06:15:30;-4.00;63.40
14252;DHT22;7210;51.502;10.722;2023-01-29T06:17:57;-3.90;62.10
14252;DHT22;7210;51.502;10.722;2023-01-29T06:20:24;-3.80;64.90
14252;DHT22;7210;51.502;10.722;2023-01-29T06:22:51;-3.80;63.80
14252;DHT22;7210;51.502;10.722;2023-01-29T06:25:19;-3.70;65.90
14252;DHT22;7210;51.502;10.722;2023-01-29T06:27:49;-3.70;66.50
14252;DHT22;7210;51.502;10.722;2023-01-29T06:30:21;-3.60;66.60
14252;DHT22;7210;51.502;10.722;2023-01-29T06:32:51;-3.50;67.70
14252;DHT22;7210;51.502;10.722;2023-01-29T06:35:23;-3.50;68.40
14252;DHT22;7210;51.502;10.722;2023-01-29T06:37:50;-3.40;68.40
14252;DHT22;7210;51.502;10.722;2023-01-29T06:40:18;-3.40;67.50
14252;DHT22;7210;51.502;10.722;2023-01-29T06:42:45;-3.40;66.80
14252;DHT22;7210;51.502;10.722;2023-01-29T06:45:25;-3.30;67.90
14252;DHT22;7210;51.502;10.722;2023-01-29T06:47:52;-3.30;92.10
14252;DHT22;7210;51.502;10.722;2023-01-29T06:50:20;-3.10;68.50
14252;DHT22;7210;51.502;10.722;2023-01-29T06:52:47;-2.90;78.20
14252;DHT22;7210;51.502;10.722;2023-01-29T06:55:14;-2.70;89.90
14252;DHT22;7210;51.502;10.722;2023-01-29T06:57:41;-2.60;99.90
14252;DHT22;7210;51.502;10.722;2023-01-29T07:00:12;-2.50;99.90
14252;DHT22;7210;51.502;10.722;2023-01-29T07:02:41;-2.40;99.90
14252;DHT22;7210;51.502;10.722;2023-01-29T07:05:08;-2.30;99.90
14252;DHT22;7210;51.502;10.722;2023-01-29T07:07:36;-2.20;99.90
14252;DHT22;7210;51.502;10.722;2023-01-29T07:10:03;-2.20;99.90
14252;DHT22;7210;51.502;10.722;2023-01-29T07:12:32;-2.10;99.90
14252;DHT22;7210;51.502;10.722;2023-01-29T07:15:01;-2.00;99.90
14252;DHT22;7210;51.502;10.722;2023-01-29T07:17:35;-2.00;99.90
14252;DHT22;7210;51.502;10.722;2023-01-29T07:20:05;-1.90;99.90
14252;DHT22;7210;51.502;10.722;2023-01-29T07:22:33;-1.90;99.90
14252;DHT22;7210;51.502;10.722;2023-01-29T07:25:00;-1.90;99.90
14252;DHT22;7210;51.502;10.722;2023-01-29T07:27:28;-1.90;99.90
14252;DHT22;7210;51.502;10.722;2023-01-29T07:29:55;-1.80;99.90
14252;DHT22;7210;51.502;10.722;2023-01-29T07:32:23;-1.80;99.90
14252;DHT22;7210;51.502;10.722;2023-01-29T07:34:50;-1.80;99.90
14252;DHT22;7210;51.502;10.722;2023-01-29T07:37:19;-1.70;99.90
14252;DHT22;7210;51.502;10.722;2023-01-29T07:39:47;-1.80;99.90
14252;DHT22;7210;51.502;10.722;2023-01-29T07:45:08;-1.70;99.90
14252;DHT22;7210;51.502;10.722;2023-01-29T07:47:37;-1.70;99.90
14252;DHT22;7210;51.502;10.722;2023-01-29T07:50:05;-1.60;99.90
14252;DHT22;7210;51.502;10.722;2023-01-29T07:52:33;-1.50;99.90
14252;DHT22;7210;51.502;10.722;2023-01-29T07:55:00;-1.50;99.90
14252;DHT22;7210;51.502;10.722;2023-01-29T07:57:29;-1.50;99.90
14252;DHT22;7210;51.502;10.722;2023-01-29T07:59:59;-1.50;99.90
14252;DHT22;7210;51.502;10.722;2023-01-29T08:02:27;-1.60;99.90
14252;DHT22;7210;51.502;10.722;2023-01-29T08:04:55;-1.50;99.90
14252;DHT22;7210;51.502;10.722;2023-01-29T08:07:23;-1.50;99.90
14252;DHT22;7210;51.502;10.722;2023-01-29T08:09:50;-1.50;99.90
14252;DHT22;7210;51.502;10.722;2023-01-29T08:12:17;-1.40;99.90
14252;DHT22;7210;51.502;10.722;2023-01-29T08:14:44;-1.40;99.90
14252;DHT22;7210;51.502;10.722;2023-01-29T08:17:12;-1.40;99.90
14252;DHT22;7210;51.502;10.722;2023-01-29T08:19:40;-1.40;99.90
14252;DHT22;7210;51.502;10.722;2023-01-29T08:22:11;-1.30;99.90
14252;DHT22;7210;51.502;10.722;2023-01-29T08:24:40;-1.40;99.90
14252;DHT22;7210;51.502;10.722;2023-01-29T08:27:11;-1.40;99.90
14252;DHT22;7210;51.502;10.722;2023-01-29T08:29:47;-1.40;99.90
14252;DHT22;7210;51.502;10.722;2023-01-29T08:32:14;-1.30;99.90
14252;DHT22;7210;51.502;10.722;2023-01-29T08:34:43;-1.10;99.90
14252;DHT22;7210;51.502;10.722;2023-01-29T08:37:10;-1.10;99.90
14252;DHT22;7210;51.502;10.722;2023-01-29T08:39:41;-1.10;99.90
14252;DHT22;7210;51.502;10.722;2023-01-29T08:42:08;-1.10;99.90
14252;DHT22;7210;51.502;10.722;2023-01-29T08:44:36;-1.10;99.90
14252;DHT22;7210;51.502;10.722;2023-01-29T08:47:04;-1.10;99.90
14252;DHT22;7210;51.502;10.722;2023-01-29T08:49:36;-1.00;99.90
14252;DHT22;7210;51.502;10.722;2023-01-29T08:52:08;-1.10;99.90
14252;DHT22;7210;51.502;10.722;2023-01-29T08:54:36;-1.00;99.90
14252;DHT22;7210;51.502;10.722;2023-01-29T08:57:04;-0.90;99.90
14252;DHT22;7210;51.502;10.722;2023-01-29T08:59:32;-0.80;99.90
14252;DHT22;7210;51.502;10.722;2023-01-29T09:02:01;-0.70;99.90
14252;DHT22;7210;51.502;10.722;2023-01-29T09:04:35;-0.70;99.90
14252;DHT22;7210;51.502;10.722;2023-01-29T09:07:03;-0.80;99.90
14252;DHT22;7210;51.502;10.722;2023-01-29T09:09:33;-0.70;99.90
14252;DHT22;7210;51.502;10.722;2023-01-29T09:12:02;-0.70;99.90
14252;DHT22;7210;51.502;10.722;2023-01-29T09:14:35;-0.70;99.90
14252;DHT22;7210;51.502;10.722;2023-01-29T09:17:02;-0.60;99.90
14252;DHT22;7210;51.502;10.722;2023-01-29T09:19:30;-0.60;99.90
14252;DHT22;7210;51.502;10.722;2023-01-29T09:21:59;-0.50;99.90
14252;DHT22;7210;51.502;10.722;2023-01-29T09:24:26;-0.50;99.90
14252;DHT22;7210;51.502;10.722;2023-01-29T09:26:58;-0.50;99.90
14252;DHT22;7210;51.502;10.722;2023-01-29T09:29:25;-0.50;99.90
14252;DHT22;7210;51.502;10.722;2023-01-29T09:31:54;-0.50;99.90
14252;DHT22;7210;51.502;10.722;2023-01-29T09:34:21;-0.50;99.90
14252;DHT22;7210;51.502;10.722;2023-01-29T09:36:48;-0.50;99.90
14252;DHT22;7210;51.502;10.722;2023-01-29T09:39:23;-0.50;99.90
14252;DHT22;7210;51.502;10.722;2023-01-29T09:41:57;-0.50;99.90
14252;DHT22;7210;51.502;10.722;2023-01-29T09:44:48;-0.50;99.90
14252;DHT22;7210;51.502;10.722;2023-01-29T09:47:26;-0.50;99.90
14252;DHT22;7210;51.502;10.722;2023-01-29T09:49:58;-0.40;99.90
14252;DHT22;7210;51.502;10.722;2023-01-29T09:52:32;-0.40;99.90
14252;DHT22;7210;51.502;10.722;2023-01-29T09:55:06;-0.40;99.90
14252;DHT22;7210;51.502;10.722;2023-01-29T09:57:44;-0.30;99.90
14252;DHT22;7210;51.502;10.722;2023-01-29T10:00:17;-0.30;99.90
14252;DHT22;7210;51.502;10.722;2023-01-29T10:03:19;-0.30;99.90
14252;DHT22;7210;51.502;10.722;2023-01-29T10:06:04;-0.30;99.90
14252;DHT22;7210;51.502;10.722;2023-01-29T10:09:26;-0.30;99.90
14252;DHT22;7210;51.502;10.722;2023-01-29T10:12:31;-0.20;99.90
14252;DHT22;7210;51.502;10.722;2023-01-29T10:15:22;-0.10;99.90
14252;DHT22;7210;51.502;10.722;2023-01-29T10:18:25;0.00;99.90
14252;DHT22;7210;51.502;10.722;2023-01-29T10:21:53;0.10;99.90
14252;DHT22;7210;51.502;10.722;2023-01-29T10:24:37;0.10;99.90
14252;DHT22;7210;51.502;10.722;2023-01-29T10:27:15;0.20;99.90
14252;DHT22;7210;51.502;10.722;2023-01-29T10:29:47;0.20;99.90
14252;DHT22;7210;51.502;10.722;2023-01-29T10:32:20;0.20;99.90
14252;DHT22;7210;51.502;10.722;2023-01-29T10:34:53;0.30;99.90
14252;DHT22;7210;51.502;10.722;2023-01-29T10:37:31;0.30;99.90
14252;DHT22;7210;51.502;10.722;2023-01-29T10:40:17;0.30;99.90
14252;DHT22;7210;51.502;10.722;2023-01-29T10:42:50;0.40;99.90
14252;DHT22;7210;51.502;10.722;2023-01-29T10:45:45;0.30;99.90
14252;DHT22;7210;51.502;10.722;2023-01-29T10:48:38;0.30;99.90
14252;DHT22;7210;51.502;10.722;2023-01-29T10:51:22;0.40;99.90
14252;DHT22;7210;51.502;10.722;2023-01-29T10:54:15;0.40;99.90
14252;DHT22;7210;51.502;10.722;2023-01-29T10:57:01;0.50;99.90
14252;DHT22;7210;51.502;10.722;2023-01-29T10:59:59;0.60;99.90
14252;DHT22;7210;51.502;10.722;2023-01-29T11:02:33;0.70;99.90
14252;DHT22;7210;51.502;10.722;2023-01-29T11:05:01;0.90;99.90
14252;DHT22;7210;51.502;10.722;2023-01-29T11:07:29;0.90;99.90
14252;DHT22;7210;51.502;10.722;2023-01-29T11:10:00;1.00;99.90
14252;DHT22;7210;51.502;10.722;2023-01-29T11:12:33;1.10;99.90
14252;DHT22;7210;51.502;10.722;2023-01-29T11:15:06;1.20;99.90
14252;DHT22;7210;51.502;10.722;2023-01-29T11:18:02;1.20;99.90
14252;DHT22;7210;51.502;10.722;2023-01-29T11:20:36;1.10;99.90
14252;DHT22;7210;51.502;10.722;2023-01-29T11:23:05;1.20;99.90
14252;DHT22;7210;51.502;10.722;2023-01-29T11:25:51;1.20;99.90
14252;DHT22;7210;51.502;10.722;2023-01-29T11:28:35;1.20;99.90
14252;DHT22;7210;51.502;10.722;2023-01-29T11:31:18;1.20;99.90
14252;DHT22;7210;51.502;10.722;2023-01-29T11:34:01;1.20;99.90
14252;DHT22;7210;51.502;10.722;2023-01-29T11:36:34;1.20;99.90
14252;DHT22;7210;51.502;10.722;2023-01-29T11:39:13;1.10;99.90
14252;DHT22;7210;51.502;10.722;2023-01-29T11:41:48;1.10;99.90
14252;DHT22;7210;51.502;10.722;2023-01-29T11:44:31;1.20;99.90
14252;DHT22;7210;51.502;10.722;2023-01-29T11:47:16;1.10;99.90
14252;DHT22;7210;51.502;10.722;2023-01-29T11:49:51;1.10;99.90
14252;DHT22;7210;51.502;10.722;2023-01-29T11:52:23;1.10;99.90
14252;DHT22;7210;51.502;10.722;2023-01-29T11:54:56;1.10;99.90
14252;DHT22;7210;51.502;10.722;2023-01-29T11:57:31;1.00;99.90
14252;DHT22;7210;51.502;10.722;2023-01-29T12:00:03;1.00;99.90
14252;DHT22;7210;51.502;10.722;2023-01-29T12:02:41;1.10;99.90
14252;DHT22;7210;51.502;10.722;2023-01-29T12:05:14;1.10;99.90
14252;DHT22;7210;51.502;10.722;2023-01-29T12:07:50;1.10;99.90
14252;DHT22;7210;51.502;10.722;2023-01-29T12:10:31;1.10;99.90
14252;DHT22;7210;51.502;10.722;2023-01-29T12:13:10;1.00;99.90
14252;DHT22;7210;51.502;10.722;2023-01-29T12:16:19;1.10;99.90
14252;DHT22;7210;51.502;10.722;2023-01-29T12:18:56;1.20;99.90
14252;DHT22;7210;51.502;10.722;2023-01-29T12:21:33;1.10;99.90
14252;DHT22;7210;51.502;10.722;2023-01-29T12:24:30;1.20;99.90
14252;DHT22;7210;51.502;10.722;2023-01-29T12:27:23;1.30;99.90
14252;DHT22;7210;51.502;10.722;2023-01-29T12:30:02;1.40;99.90
14252;DHT22;7210;51.502;10.722;2023-01-29T12:32:42;1.40;99.90
14252;DHT22;7210;51.502;10.722;2023-01-29T12:35:27;1.40;99.90
14252;DHT22;7210;51.502;10.722;2023-01-29T12:38:02;1.50;99.90
14252;DHT22;7210;51.502;10.722;2023-01-29T12:40:39;1.50;99.90
14252;DHT22;7210;51.502;10.722;2023-01-29T12:43:20;1.50;99.90
14252;DHT22;7210;51.502;10.722;2023-01-29T12:46:17;1.50;99.90
14252;DHT22;7210;51.502;10.722;2023-01-29T12:49:02;1.40;99.90
14252;DHT22;7210;51.502;10.722;2023-01-29T12:51:50;1.40;99.90
14252;DHT22;7210;51.502;10.722;2023-01-29T12:54:27;1.40;99.90
14252;DHT22;7210;51.502;10.722;2023-01-29T12:57:07;1.40;99.90
14252;DHT22;7210;51.502;10.722;2023-01-29T12:59:48;1.40;99.90
14252;DHT22;7210;51.502;10.722;2023-01-29T13:02:32;1.60;99.90
14252;DHT22;7210;51.502;10.722;2023-01-29T13:05:12;1.60;99.90
14252;DHT22;7210;51.502;10.722;2023-01-29T13:07:50;1.60;99.90
14252;DHT22;7210;51.502;10.722;2023-01-29T13:10:26;1.60;99.90
14252;DHT22;7210;51.502;10.722;2023-01-29T13:13:01;1.70;99.90
14252;DHT22;7210;51.502;10.722;2023-01-29T13:15:37;1.60;99.90
14252;DHT22;7210;51.502;10.722;2023-01-29T13:18:25;1.60;99.90
14252;DHT22;7210;51.502;10.722;2023-01-29T13:21:12;1.50;99.90
14252;DHT22;7210;51.502;10.722;2023-01-29T13:23:44;1.50;99.90
14252;DHT22;7210;51.502;10.722;2023-01-29T13:26:17;1.50;99.90
14252;DHT22;7210;51.502;10.722;2023-01-29T13:28:47;1.50;99.90
14252;DHT22;7210;51.502;10.722;2023-01-29T13:31:27;1.50;99.90
14252;DHT22;7210;51.502;10.722;2023-01-29T13:34:03;1.40;99.90
14252;DHT22;7210;51.502;10.722;2023-01-29T13:36:36;1.40;99.90
14252;DHT22;7210;51.502;10.722;2023-01-29T13:39:18;1.40;99.90
14252;DHT22;7210;51.502;10.722;2023-01-29T13:41:50;1.50;99.90
14252;DHT22;7210;51.502;10.722;2023-01-29T13:44:23;1.50;99.90
14252;DHT22;7210;51.502;10.722;2023-01-29T13:46:55;1.50;99.90
14252;DHT22;7210;51.502;10.722;2023-01-29T13:49:35;1.50;99.90
14252;DHT22;7210;51.502;10.722;2023-01-29T13:52:20;1.40;99.90
14252;DHT22;7210;51.502;10.722;2023-01-29T13:54:57;1.40;99.90
14252;DHT22;7210;51.502;10.722;2023-01-29T13:57:35;1.40;99.90
14252;DHT22;7210;51.502;10.722;2023-01-29T14:03:50;1.40;99.90
14252;DHT22;7210;51.502;10.722;2023-01-29T14:06:47;1.50;99.90
14252;DHT22;7210;51.502;10.722;2023-01-29T14:12:46;1.40;99.90
14252;DHT22;7210;51.502;10.722;2023-01-29T14:15:30;1.40;99.90
14252;DHT22;7210;51.502;10.722;2023-01-29T14:18:14;1.40;99.90
14252;DHT22;7210;51.502;10.722;2023-01-29T14:21:18;1.30;99.90
14252;DHT22;7210;51.502;10.722;2023-01-29T14:24:08;1.30;99.90
14252;DHT22;7210;51.502;10.722;2023-01-29T14:26:44;1.30;99.90
14252;DHT22;7210;51.502;10.722;2023-01-29T14:29:19;1.30;99.90
14252;DHT22;7210;51.502;10.722;2023-01-29T14:31:52;1.30;99.90
14252;DHT22;7210;51.502;10.722;2023-01-29T14:34:27;1.30;99.90
14252;DHT22;7210;51.502;10.722;2023-01-29T14:36:59;1.40;99.90
14252;DHT22;7210;51.502;10.722;2023-01-29T14:39:35;1.40;99.90
14252;DHT22;7210;51.502;10.722;2023-01-29T14:42:16;1.40;99.90
14252;DHT22;7210;51.502;10.722;2023-01-29T14:45:20;1.30;99.90
14252;DHT22;7210;51.502;10.722;2023-01-29T14:51:07;1.20;99.90
14252;DHT22;7210;51.502;10.722;2023-01-29T14:53:55;1.20;99.90
14252;DHT22;7210;51.502;10.722;2023-01-29T14:56:32;1.20;99.90
14252;DHT22;7210;51.502;10.722;2023-01-29T14:59:13;1.20;99.90
14252;DHT22;7210;51.502;10.722;2023-01-29T15:01:47;1.20;99.90
14252;DHT22;7210;51.502;10.722;2023-01-29T15:04:22;1.10;99.90
14252;DHT22;7210;51.502;10.722;2023-01-29T15:07:00;1.10;99.90
14252;DHT22;7210;51.502;10.722;2023-01-29T15:09:36;1.00;99.90
14252;DHT22;7210;51.502;10.722;2023-01-29T15:12:16;1.00;99.90
14252;DHT22;7210;51.502;10.722;2023-01-29T15:14:56;1.10;99.90
14252;DHT22;7210;51.502;10.722;2023-01-29T15:17:31;1.00;99.90
14252;DHT22;7210;51.502;10.722;2023-01-29T15:20:25;1.00;99.90
14252;DHT22;7210;51.502;10.722;2023-01-29T15:22:55;1.00;99.90
14252;DHT22;7210;51.502;10.722;2023-01-29T15:25:23;1.00;99.90
14252;DHT22;7210;51.502;10.722;2023-01-29T15:27:54;1.00;99.90
14252;DHT22;7210;51.502;10.722;2023-01-29T15:30:28;0.90;99.90
14252;DHT22;7210;51.502;10.722;2023-01-29T15:33:00;1.00;99.90
14252;DHT22;7210;51.502;10.722;2023-01-29T15:35:30;0.90;99.90
14252;DHT22;7210;51.502;10.722;2023-01-29T15:38:05;0.90;99.90
14252;DHT22;7210;51.502;10.722;2023-01-29T15:40:40;0.80;99.90
14252;DHT22;7210;51.502;10.722;2023-01-29T15:43:19;0.90;99.90
14252;DHT22;7210;51.502;10.722;2023-01-29T15:45:48;0.90;99.90
14252;DHT22;7210;51.502;10.722;2023-01-29T15:48:19;0.90;99.90
14252;DHT22;7210;51.502;10.722;2023-01-29T15:50:53;0.80;99.90
14252;DHT22;7210;51.502;10.722;2023-01-29T15:53:27;0.80;99.90
14252;DHT22;7210;51.502;10.722;2023-01-29T15:56:00;0.80;99.90
14252;DHT22;7210;51.502;10.722;2023-01-29T15:58:30;0.80;99.90
14252;DHT22;7210;51.502;10.722;2023-01-29T16:00:59;0.80;99.90
14252;DHT22;7210;51.502;10.722;2023-01-29T16:03:30;0.80;99.90
14252;DHT22;7210;51.502;10.722;2023-01-29T16:05:59;0.80;99.90
14252;DHT22;7210;51.502;10.722;2023-01-29T16:08:29;0.70;99.90
14252;DHT22;7210;51.502;10.722;2023-01-29T16:10:58;0.70;99.90
14252;DHT22;7210;51.502;10.722;2023-01-29T16:13:32;0.60;99.90
14252;DHT22;7210;51.502;10.722;2023-01-29T16:16:04;0.60;99.90
14252;DHT22;7210;51.502;10.722;2023-01-29T16:18:46;0.60;99.90
14252;DHT22;7210;51.502;10.722;2023-01-29T16:21:23;0.60;99.90
14252;DHT22;7210;51.502;10.722;2023-01-29T16:23:57;0.60;99.90
14252;DHT22;7210;51.502;10.722;2023-01-29T16:26:28;0.60;99.90
14252;DHT22;7210;51.502;10.722;2023-01-29T16:29:02;0.60;99.90
14252;DHT22;7210;51.502;10.722;2023-01-29T16:31:31;0.50;99.90
14252;DHT22;7210;51.502;10.722;2023-01-29T16:34:05;0.50;99.90
14252;DHT22;7210;51.502;10.722;2023-01-29T16:36:35;0.60;99.90
14252;DHT22;7210;51.502;10.722;2023-01-29T16:39:12;0.60;99.90
14252;DHT22;7210;51.502;10.722;2023-01-29T16:42:07;0.50;99.90
14252;DHT22;7210;51.502;10.722;2023-01-29T16:44:50;0.50;99.90